sensor_id;sensor_type;location;lat;lon;timestamp;temperature;humidity
21244;DHT22;10780;50.942;4.028;2023-06-22T00:00:52;20.50;99.90
21244;DHT22;10780;50.942;4.028;2023-06-22T00:03:19;20.40;99.90
21244;DHT22;10780;50.942;4.028;2023-06-22T00:05:47;20.40;99.90
21244;DHT22;10780;50.942;4.028;2023-06-22T00:08:12;20.40;99.90
21244;DHT22;10780;50.942;4.028;2023-06-22T00:10:38;20.20;99.90
21244;DHT22;10780;50.942;4.028;2023-06-22T00:13:05;20.00;99.90
21244;DHT22;10780;50.942;4.028;2023-06-22T00:15:31;20.00;99.90
21244;DHT22;10780;50.942;4.028;2023-06-22T00:17:57;20.00;99.90
21244;DHT22;10780;50.942;4.028;2023-06-22T00:20:23;20.00;99.90
21244;DHT22;10780;50.942;4.028;2023-06-22T00:22:56;20.30;99.90
21244;DHT22;10780;50.942;4.028;2023-06-22T00:25:23;20.40;99.90
21244;DHT22;10780;50.942;4.028;2023-06-22T00:27:49;20.40;99.90
21244;DHT22;10780;50.942;4.028;2023-06-22T00:30:17;20.40;99.90
21244;DHT22;10780;50.942;4.028;2023-06-22T00:32:44;20.40;99.90
21244;DHT22;10780;50.942;4.028;2023-06-22T00:35:14;20.40;99.90
21244;DHT22;10780;50.942;4.028;2023-06-22T00:37:39;20.30;99.90
21244;DHT22;10780;50.942;4.028;2023-06-22T00:40:09;20.30;99.90
21244;DHT22;10780;50.942;4.028;2023-06-22T00:42:40;20.30;99.90
21244;DHT22;10780;50.942;4.028;2023-06-22T00:45:07;20.30;99.90
21244;DHT22;10780;50.942;4.028;2023-06-22T00:47:34;20.40;99.90
21244;DHT22;10780;50.942;4.028;2023-06-22T00:50:01;20.40;99.90
21244;DHT22;10780;50.942;4.028;2023-06-22T00:52:28;20.30;99.90
21244;DHT22;10780;50.942;4.028;2023-06-22T00:54:56;20.20;99.90
21244;DHT22;10780;50.942;4.028;2023-06-22T00:57:24;20.10;99.90
21244;DHT22;10780;50.942;4.028;2023-06-22T00:59:53;20.00;99.90
21244;DHT22;10780;50.942;4.028;2023-06-22T01:02:19;19.90;99.90
21244;DHT22;10780;50.942;4.028;2023-06-22T01:04:45;19.70;99.90
21244;DHT22;10780;50.942;4.028;2023-06-22T01:12:18;19.70;99.90
21244;DHT22;10780;50.942;4.028;2023-06-22T01:14:53;19.80;99.90
21244;DHT22;10780;50.942;4.028;2023-06-22T01:17:21;19.80;99.90
21244;DHT22;10780;50.942;4.028;2023-06-22T01:20:05;19.80;99.90
21244;DHT22;10780;50.942;4.028;2023-06-22T01:22:43;19.90;99.90
21244;DHT22;10780;50.942;4.028;2023-06-22T01:25:15;19.90;99.90
21244;DHT22;10780;50.942;4.028;2023-06-22T01:27:56;19.90;99.90
21244;DHT22;10780;50.942;4.028;2023-06-22T01:30:27;19.90;99.90
21244;DHT22;10780;50.942;4.028;2023-06-22T01:32:57;19.90;99.90
21244;DHT22;10780;50.942;4.028;2023-06-22T01:35:24;19.90;99.90
21244;DHT22;10780;50.942;4.028;2023-06-22T01:37:50;19.90;99.90
21244;DHT22;10780;50.942;4.028;2023-06-22T01:40:17;19.90;99.90
21244;DHT22;10780;50.942;4.028;2023-06-22T01:42:44;19.80;99.90
21244;DHT22;10780;50.942;4.028;2023-06-22T01:45:11;19.70;99.90
21244;DHT22;10780;50.942;4.028;2023-06-22T01:47:38;19.70;99.90
21244;DHT22;10780;50.942;4.028;2023-06-22T01:50:05;19.70;99.90
21244;DHT22;10780;50.942;4.028;2023-06-22T01:52:30;19.80;99.90
21244;DHT22;10780;50.942;4.028;2023-06-22T01:54:59;19.80;99.90
21244;DHT22;10780;50.942;4.028;2023-06-22T01:57:25;19.80;99.90
21244;DHT22;10780;50.942;4.028;2023-06-22T02:00:02;19.70;99.90
21244;DHT22;10780;50.942;4.028;2023-06-22T02:02:37;19.70;99.90
21244;DHT22;10780;50.942;4.028;2023-06-22T02:05:09;19.60;99.90
21244;DHT22;10780;50.942;4.028;2023-06-22T02:07:44;19.50;99.90
21244;DHT22;10780;50.942;4.028;2023-06-22T02:10:12;19.50;99.90
21244;DHT22;10780;50.942;4.028;2023-06-22T02:12:41;19.30;99.90
21244;DHT22;10780;50.942;4.028;2023-06-22T02:15:08;19.10;99.90
21244;DHT22;10780;50.942;4.028;2023-06-22T02:17:34;19.00;99.90
21244;DHT22;10780;50.942;4.028;2023-06-22T02:20:02;18.80;99.90
21244;DHT22;10780;50.942;4.028;2023-06-22T02:22:34;18.70;99.90
21244;DHT22;10780;50.942;4.028;2023-06-22T02:25:00;18.80;99.90
21244;DHT22;10780;50.942;4.028;2023-06-22T02:27:25;19.00;99.90
21244;DHT22;10780;50.942;4.028;2023-06-22T02:29:51;19.00;99.90
21244;DHT22;10780;50.942;4.028;2023-06-22T02:32:17;19.00;99.90
21244;DHT22;10780;50.942;4.028;2023-06-22T02:34:43;19.10;99.90
21244;DHT22;10780;50.942;4.028;2023-06-22T02:37:13;19.00;99.90
21244;DHT22;10780;50.942;4.028;2023-06-22T02:39:40;18.90;99.90
21244;DHT22;10780;50.942;4.028;2023-06-22T02:42:05;18.90;99.90
21244;DHT22;10780;50.942;4.028;2023-06-22T02:44:31;18.80;99.90
21244;DHT22;10780;50.942;4.028;2023-06-22T02:46:57;18.50;99.90
21244;DHT22;10780;50.942;4.028;2023-06-22T02:49:23;18.50;99.90
21244;DHT22;10780;50.942;4.028;2023-06-22T02:51:52;18.50;99.90
21244;DHT22;10780;50.942;4.028;2023-06-22T02:54:18;18.50;99.90
21244;DHT22;10780;50.942;4.028;2023-06-22T02:56:44;18.40;99.90
21244;DHT22;10780;50.942;4.028;2023-06-22T02:59:10;18.40;99.90
21244;DHT22;10780;50.942;4.028;2023-06-22T03:01:37;18.50;99.90
21244;DHT22;10780;50.942;4.028;2023-06-22T03:04:08;18.50;99.90
21244;DHT22;10780;50.942;4.028;2023-06-22T03:06:35;18.50;99.90
21244;DHT22;10780;50.942;4.028;2023-06-22T03:09:03;18.40;99.90
21244;DHT22;10780;50.942;4.028;2023-06-22T03:11:33;18.40;99.90
21244;DHT22;10780;50.942;4.028;2023-06-22T03:14:00;18.30;99.90
21244;DHT22;10780;50.942;4.028;2023-06-22T03:16:26;18.30;99.90
21244;DHT22;10780;50.942;4.028;2023-06-22T03:18:52;18.40;99.90
21244;DHT22;10780;50.942;4.028;2023-06-22T03:21:19;18.40;99.90
21244;DHT22;10780;50.942;4.028;2023-06-22T03:23:45;18.50;99.90
21244;DHT22;10780;50.942;4.028;2023-06-22T03:26:11;18.60;99.90
21244;DHT22;10780;50.942;4.028;2023-06-22T03:28:37;18.50;99.90
21244;DHT22;10780;50.942;4.028;2023-06-22T03:31:04;18.50;99.90
21244;DHT22;10780;50.942;4.028;2023-06-22T03:33:32;18.30;99.90
21244;DHT22;10780;50.942;4.028;2023-06-22T03:35:57;18.40;99.90
21244;DHT22;10780;50.942;4.028;2023-06-22T03:38:23;18.40;99.90
21244;DHT22;10780;50.942;4.028;2023-06-22T03:40:48;18.30;99.90
21244;DHT22;10780;50.942;4.028;2023-06-22T03:43:14;18.40;99.90
21244;DHT22;10780;50.942;4.028;2023-06-22T03:45:40;18.30;99.90
21244;DHT22;10780;50.942;4.028;2023-06-22T03:48:05;18.30;99.90
21244;DHT22;10780;50.942;4.028;2023-06-22T03:50:31;18.40;99.90
21244;DHT22;10780;50.942;4.028;2023-06-22T03:52:57;18.40;99.90
21244;DHT22;10780;50.942;4.028;2023-06-22T03:55:23;18.40;99.90
21244;DHT22;10780;50.942;4.028;2023-06-22T03:57:48;18.40;99.90
21244;DHT22;10780;50.942;4.028;2023-06-22T04:00:14;18.40;99.90
21244;DHT22;10780;50.942;4.028;2023-06-22T04:02:41;18.40;99.90
21244;DHT22;10780;50.942;4.028;2023-06-22T04:05:08;18.50;99.90
21244;DHT22;10780;50.942;4.028;2023-06-22T04:07:34;18.40;99.90
21244;DHT22;10780;50.942;4.028;2023-06-22T04:10:03;18.50;99.90
21244;DHT22;10780;50.942;4.028;2023-06-22T04:12:29;18.40;99.90
21244;DHT22;10780;50.942;4.028;2023-06-22T04:14:55;18.50;99.90
21244;DHT22;10780;50.942;4.028;2023-06-22T04:17:20;18.60;99.90
21244;DHT22;10780;50.942;4.028;2023-06-22T04:19:46;18.80;99.90
21244;DHT22;10780;50.942;4.028;2023-06-22T04:22:12;18.90;99.90
21244;DHT22;10780;50.942;4.028;2023-06-22T04:24:38;19.00;99.90
21244;DHT22;10780;50.942;4.028;2023-06-22T04:27:04;19.10;99.90
21244;DHT22;10780;50.942;4.028;2023-06-22T04:29:30;19.10;99.90
21244;DHT22;10780;50.942;4.028;2023-06-22T04:31:56;19.20;99.90
21244;DHT22;10780;50.942;4.028;2023-06-22T04:34:24;19.40;99.90
21244;DHT22;10780;50.942;4.028;2023-06-22T04:36:53;19.50;99.90
21244;DHT22;10780;50.942;4.028;2023-06-22T04:39:18;19.40;99.90
21244;DHT22;10780;50.942;4.028;2023-06-22T04:41:44;19.30;99.90
21244;DHT22;10780;50.942;4.028;2023-06-22T04:44:15;19.30;99.90
21244;DHT22;10780;50.942;4.028;2023-06-22T04:46:52;19.20;99.90
21244;DHT22;10780;50.942;4.028;2023-06-22T04:49:30;19.20;99.90
21244;DHT22;10780;50.942;4.028;2023-06-22T04:52:00;19.30;99.90
21244;DHT22;10780;50.942;4.028;2023-06-22T04:54:26;19.50;99.90
21244;DHT22;10780;50.942;4.028;2023-06-22T04:56:52;19.70;99.90
21244;DHT22;10780;50.942;4.028;2023-06-22T04:59:28;19.70;99.90
21244;DHT22;10780;50.942;4.028;2023-06-22T05:02:00;19.90;99.90
21244;DHT22;10780;50.942;4.028;2023-06-22T05:04:27;20.10;99.90
21244;DHT22;10780;50.942;4.028;2023-06-22T05:06:54;20.30;99.90
21244;DHT22;10780;50.942;4.028;2023-06-22T05:09:20;20.20;99.90
21244;DHT22;10780;50.942;4.028;2023-06-22T05:11:46;20.30;99.90
21244;DHT22;10780;50.942;4.028;2023-06-22T05:14:12;20.20;99.90
21244;DHT22;10780;50.942;4.028;2023-06-22T05:16:38;20.30;99.90
21244;DHT22;10780;50.942;4.028;2023-06-22T05:19:04;20.30;99.90
21244;DHT22;10780;50.942;4.028;2023-06-22T05:21:30;20.10;99.90
21244;DHT22;10780;50.942;4.028;2023-06-22T05:23:57;20.20;99.90
21244;DHT22;10780;50.942;4.028;2023-06-22T05:26:26;20.50;99.90
21244;DHT22;10780;50.942;4.028;2023-06-22T05:28:52;20.70;99.90
21244;DHT22;10780;50.942;4.028;2023-06-22T05:31:19;20.60;99.90
21244;DHT22;10780;50.942;4.028;2023-06-22T05:33:48;20.60;99.90
21244;DHT22;10780;50.942;4.028;2023-06-22T05:36:14;20.50;99.90
21244;DHT22;10780;50.942;4.028;2023-06-22T05:38:41;20.60;99.90
21244;DHT22;10780;50.942;4.028;2023-06-22T05:41:07;20.80;99.90
21244;DHT22;10780;50.942;4.028;2023-06-22T05:43:33;20.80;99.90
21244;DHT22;10780;50.942;4.028;2023-06-22T05:46:00;21.00;99.90
21244;DHT22;10780;50.942;4.028;2023-06-22T05:48:26;21.10;99.90
21244;DHT22;10780;50.942;4.028;2023-06-22T05:50:52;21.20;99.90
21244;DHT22;10780;50.942;4.028;2023-06-22T05:53:19;21.10;99.90
21244;DHT22;10780;50.942;4.028;2023-06-22T05:55:44;21.40;99.90
21244;DHT22;10780;50.942;4.028;2023-06-22T05:58:10;21.50;99.90
21244;DHT22;10780;50.942;4.028;2023-06-22T06:00:36;21.70;99.90
21244;DHT22;10780;50.942;4.028;2023-06-22T06:03:02;21.90;99.90
21244;DHT22;10780;50.942;4.028;2023-06-22T06:05:30;22.10;99.90
21244;DHT22;10780;50.942;4.028;2023-06-22T06:07:56;22.30;99.90
21244;DHT22;10780;50.942;4.028;2023-06-22T06:10:21;22.50;99.90
21244;DHT22;10780;50.942;4.028;2023-06-22T06:12:47;22.20;99.90
21244;DHT22;10780;50.942;4.028;2023-06-22T06:15:13;22.30;99.90
21244;DHT22;10780;50.942;4.028;2023-06-22T06:17:53;22.30;99.90
21244;DHT22;10780;50.942;4.028;2023-06-22T06:20:21;22.40;99.90
21244;DHT22;10780;50.942;4.028;2023-06-22T06:22:47;22.50;99.90
21244;DHT22;10780;50.942;4.028;2023-06-22T06:25:13;22.30;99.90
21244;DHT22;10780;50.942;4.028;2023-06-22T06:27:46;22.20;99.90
21244;DHT22;10780;50.942;4.028;2023-06-22T06:30:13;22.10;99.90
21244;DHT22;10780;50.942;4.028;2023-06-22T06:32:40;22.20;99.90
21244;DHT22;10780;50.942;4.028;2023-06-22T06:35:07;22.40;99.90
21244;DHT22;10780;50.942;4.028;2023-06-22T06:37:40;22.00;99.90
21244;DHT22;10780;50.942;4.028;2023-06-22T06:40:09;22.10;99.90
21244;DHT22;10780;50.942;4.028;2023-06-22T06:42:44;22.20;99.90
21244;DHT22;10780;50.942;4.028;2023-06-22T06:45:23;22.30;99.90
21244;DHT22;10780;50.942;4.028;2023-06-22T06:47:51;22.30;99.90
21244;DHT22;10780;50.942;4.028;2023-06-22T06:50:17;22.20;99.90
21244;DHT22;10780;50.942;4.028;2023-06-22T06:52:43;22.10;99.90
21244;DHT22;10780;50.942;4.028;2023-06-22T06:55:09;22.00;99.90
21244;DHT22;10780;50.942;4.028;2023-06-22T06:57:40;21.90;99.90
21244;DHT22;10780;50.942;4.028;2023-06-22T07:00:07;21.90;99.90
21244;DHT22;10780;50.942;4.028;2023-06-22T07:02:41;21.80;99.90
21244;DHT22;10780;50.942;4.028;2023-06-22T07:05:07;21.70;99.90
21244;DHT22;10780;50.942;4.028;2023-06-22T07:07:33;21.80;99.90
21244;DHT22;10780;50.942;4.028;2023-06-22T07:10:00;21.70;99.90
21244;DHT22;10780;50.942;4.028;2023-06-22T07:12:26;21.70;99.90
21244;DHT22;10780;50.942;4.028;2023-06-22T07:14:53;21.30;99.90
21244;DHT22;10780;50.942;4.028;2023-06-22T07:17:19;21.20;99.90
21244;DHT22;10780;50.942;4.028;2023-06-22T07:19:45;21.50;99.90
21244;DHT22;10780;50.942;4.028;2023-06-22T07:22:11;21.70;99.90
21244;DHT22;10780;50.942;4.028;2023-06-22T07:24:36;21.90;99.90
21244;DHT22;10780;50.942;4.028;2023-06-22T07:27:03;22.00;99.90
21244;DHT22;10780;50.942;4.028;2023-06-22T07:29:29;21.80;99.90
21244;DHT22;10780;50.942;4.028;2023-06-22T07:31:55;21.80;99.90
21244;DHT22;10780;50.942;4.028;2023-06-22T07:34:21;21.60;99.90
21244;DHT22;10780;50.942;4.028;2023-06-22T07:36:48;21.50;99.90
21244;DHT22;10780;50.942;4.028;2023-06-22T07:39:14;21.70;99.90
21244;DHT22;10780;50.942;4.028;2023-06-22T07:41:40;22.00;99.90
21244;DHT22;10780;50.942;4.028;2023-06-22T07:44:06;22.20;99.90
21244;DHT22;10780;50.942;4.028;2023-06-22T07:46:33;22.10;99.90
21244;DHT22;10780;50.942;4.028;2023-06-22T07:48:59;21.90;99.90
21244;DHT22;10780;50.942;4.028;2023-06-22T07:51:25;22.00;99.90
21244;DHT22;10780;50.942;4.028;2023-06-22T07:53:51;22.00;99.90
21244;DHT22;10780;50.942;4.028;2023-06-22T07:56:17;21.80;99.90
21244;DHT22;10780;50.942;4.028;2023-06-22T07:58:47;21.60;99.90
21244;DHT22;10780;50.942;4.028;2023-06-22T08:01:14;21.90;99.90
21244;DHT22;10780;50.942;4.028;2023-06-22T08:03:39;22.20;99.90
21244;DHT22;10780;50.942;4.028;2023-06-22T08:06:05;22.30;99.90
21244;DHT22;10780;50.942;4.028;2023-06-22T08:08:35;22.40;99.90
21244;DHT22;10780;50.942;4.028;2023-06-22T08:11:01;22.30;99.90
21244;DHT22;10780;50.942;4.028;2023-06-22T08:13:26;22.30;99.90
21244;DHT22;10780;50.942;4.028;2023-06-22T08:15:52;22.50;99.90
21244;DHT22;10780;50.942;4.028;2023-06-22T08:18:18;22.70;99.90
21244;DHT22;10780;50.942;4.028;2023-06-22T08:20:43;22.90;99.90
21244;DHT22;10780;50.942;4.028;2023-06-22T08:23:09;23.00;99.90
21244;DHT22;10780;50.942;4.028;2023-06-22T08:25:35;23.20;99.90
21244;DHT22;10780;50.942;4.028;2023-06-22T08:28:02;22.90;99.90
21244;DHT22;10780;50.942;4.028;2023-06-22T08:30:28;23.00;99.90
21244;DHT22;10780;50.942;4.028;2023-06-22T08:32:53;23.20;99.90
21244;DHT22;10780;50.942;4.028;2023-06-22T08:35:21;23.10;99.90
21244;DHT22;10780;50.942;4.028;2023-06-22T08:37:48;23.00;99.90
21244;DHT22;10780;50.942;4.028;2023-06-22T08:40:20;22.80;99.90
21244;DHT22;10780;50.942;4.028;2023-06-22T08:42:46;22.60;99.90
21244;DHT22;10780;50.942;4.028;2023-06-22T08:45:13;22.40;99.90
21244;DHT22;10780;50.942;4.028;2023-06-22T08:47:40;22.50;99.90
21244;DHT22;10780;50.942;4.028;2023-06-22T08:50:07;22.70;99.90
21244;DHT22;10780;50.942;4.028;2023-06-22T08:52:34;22.80;99.90
21244;DHT22;10780;50.942;4.028;2023-06-22T08:55:00;22.90;99.90
21244;DHT22;10780;50.942;4.028;2023-06-22T08:57:26;23.00;99.90
21244;DHT22;10780;50.942;4.028;2023-06-22T08:59:58;22.90;99.90
21244;DHT22;10780;50.942;4.028;2023-06-22T09:02:27;22.80;99.90
21244;DHT22;10780;50.942;4.028;2023-06-22T09:04:57;22.90;99.90
21244;DHT22;10780;50.942;4.028;2023-06-22T09:07:24;22.70;99.90
21244;DHT22;10780;50.942;4.028;2023-06-22T09:09:51;22.50;99.90
21244;DHT22;10780;50.942;4.028;2023-06-22T09:12:18;22.40;99.90
21244;DHT22;10780;50.942;4.028;2023-06-22T09:14:47;22.30;99.90
21244;DHT22;10780;50.942;4.028;2023-06-22T09:17:13;22.30;99.90
21244;DHT22;10780;50.942;4.028;2023-06-22T09:19:39;22.50;99.90
21244;DHT22;10780;50.942;4.028;2023-06-22T09:22:05;22.60;99.90
21244;DHT22;10780;50.942;4.028;2023-06-22T09:24:32;22.40;99.90
21244;DHT22;10780;50.942;4.028;2023-06-22T09:26:58;22.30;99.90
21244;DHT22;10780;50.942;4.028;2023-06-22T09:29:23;22.10;99.90
21244;DHT22;10780;50.942;4.028;2023-06-22T09:31:49;21.90;99.90
21244;DHT22;10780;50.942;4.028;2023-06-22T09:34:15;21.90;99.90
21244;DHT22;10780;50.942;4.028;2023-06-22T09:36:46;22.10;99.90
21244;DHT22;10780;50.942;4.028;2023-06-22T09:39:12;22.20;99.90
21244;DHT22;10780;50.942;4.028;2023-06-22T09:41:37;22.10;99.90
21244;DHT22;10780;50.942;4.028;2023-06-22T09:44:03;21.90;99.90
21244;DHT22;10780;50.942;4.028;2023-06-22T09:46:28;21.80;99.90
21244;DHT22;10780;50.942;4.028;2023-06-22T09:48:54;21.50;99.90
21244;DHT22;10780;50.942;4.028;2023-06-22T09:51:20;21.30;99.90
21244;DHT22;10780;50.942;4.028;2023-06-22T09:53:47;21.20;99.90
21244;DHT22;10780;50.942;4.028;2023-06-22T09:56:13;21.20;99.90
21244;DHT22;10780;50.942;4.028;2023-06-22T09:58:42;21.10;99.90
21244;DHT22;10780;50.942;4.028;2023-06-22T10:01:08;21.10;99.90
21244;DHT22;10780;50.942;4.028;2023-06-22T10:03:35;21.10;99.90
21244;DHT22;10780;50.942;4.028;2023-06-22T10:06:01;21.00;99.90
21244;DHT22;10780;50.942;4.028;2023-06-22T10:08:26;21.00;99.90
21244;DHT22;10780;50.942;4.028;2023-06-22T10:10:52;21.10;99.90
21244;DHT22;10780;50.942;4.028;2023-06-22T10:13:18;21.10;99.90
21244;DHT22;10780;50.942;4.028;2023-06-22T10:15:44;21.10;99.90
21244;DHT22;10780;50.942;4.028;2023-06-22T10:18:15;21.30;99.90
21244;DHT22;10780;50.942;4.028;2023-06-22T10:20:41;21.50;99.90
21244;DHT22;10780;50.942;4.028;2023-06-22T10:23:07;21.60;99.90
21244;DHT22;10780;50.942;4.028;2023-06-22T10:25:33;21.70;99.90
21244;DHT22;10780;50.942;4.028;2023-06-22T10:27:58;21.80;99.90
21244;DHT22;10780;50.942;4.028;2023-06-22T10:30:24;21.90;99.90
21244;DHT22;10780;50.942;4.028;2023-06-22T10:32:50;21.90;99.90
21244;DHT22;10780;50.942;4.028;2023-06-22T10:35:15;21.90;99.90
21244;DHT22;10780;50.942;4.028;2023-06-22T10:37:45;21.80;99.90
21244;DHT22;10780;50.942;4.028;2023-06-22T10:40:12;21.90;99.90
21244;DHT22;10780;50.942;4.028;2023-06-22T10:42:38;21.90;99.90
21244;DHT22;10780;50.942;4.028;2023-06-22T10:45:05;21.60;99.90
21244;DHT22;10780;50.942;4.028;2023-06-22T10:47:30;21.20;99.90
21244;DHT22;10780;50.942;4.028;2023-06-22T10:49:56;21.00;99.90
21244;DHT22;10780;50.942;4.028;2023-06-22T10:52:22;20.80;99.90
21244;DHT22;10780;50.942;4.028;2023-06-22T10:54:47;20.80;99.90
21244;DHT22;10780;50.942;4.028;2023-06-22T10:57:13;20.90;99.90
21244;DHT22;10780;50.942;4.028;2023-06-22T10:59:39;20.90;99.90
21244;DHT22;10780;50.942;4.028;2023-06-22T11:02:05;20.80;99.90
21244;DHT22;10780;50.942;4.028;2023-06-22T11:04:31;20.70;99.90
21244;DHT22;10780;50.942;4.028;2023-06-22T11:06:56;20.50;99.90
21244;DHT22;10780;50.942;4.028;2023-06-22T11:09:22;20.10;99.90
21244;DHT22;10780;50.942;4.028;2023-06-22T11:11:50;19.80;99.90
21244;DHT22;10780;50.942;4.028;2023-06-22T11:14:16;19.50;99.90
21244;DHT22;10780;50.942;4.028;2023-06-22T11:16:41;19.30;99.90
21244;DHT22;10780;50.942;4.028;2023-06-22T11:19:07;19.40;99.90
21244;DHT22;10780;50.942;4.028;2023-06-22T11:21:33;19.40;99.90
21244;DHT22;10780;50.942;4.028;2023-06-22T11:23:59;19.30;99.90
21244;DHT22;10780;50.942;4.028;2023-06-22T11:26:25;19.30;99.90
21244;DHT22;10780;50.942;4.028;2023-06-22T11:28:54;19.30;99.90
21244;DHT22;10780;50.942;4.028;2023-06-22T11:31:20;19.30;99.90
21244;DHT22;10780;50.942;4.028;2023-06-22T11:33:45;19.30;99.90
21244;DHT22;10780;50.942;4.028;2023-06-22T11:36:12;19.20;99.90
21244;DHT22;10780;50.942;4.028;2023-06-22T11:38:38;19.10;99.90
21244;DHT22;10780;50.942;4.028;2023-06-22T11:41:06;19.00;99.90
21244;DHT22;10780;50.942;4.028;2023-06-22T11:43:32;18.90;99.90
21244;DHT22;10780;50.942;4.028;2023-06-22T11:45:57;18.90;99.90
21244;DHT22;10780;50.942;4.028;2023-06-22T11:48:24;18.90;99.90
21244;DHT22;10780;50.942;4.028;2023-06-22T11:50:50;19.00;99.90
21244;DHT22;10780;50.942;4.028;2023-06-22T11:53:16;18.90;99.90
21244;DHT22;10780;50.942;4.028;2023-06-22T11:55:44;18.80;99.90
21244;DHT22;10780;50.942;4.028;2023-06-22T11:58:11;18.80;99.90
21244;DHT22;10780;50.942;4.028;2023-06-22T12:00:37;18.80;99.90
21244;DHT22;10780;50.942;4.028;2023-06-22T12:03:03;18.80;99.90
21244;DHT22;10780;50.942;4.028;2023-06-22T12:05:29;18.80;99.90
21244;DHT22;10780;50.942;4.028;2023-06-22T12:07:54;18.80;99.90
21244;DHT22;10780;50.942;4.028;2023-06-22T12:10:25;18.90;99.90
21244;DHT22;10780;50.942;4.028;2023-06-22T12:12:54;19.00;99.90
21244;DHT22;10780;50.942;4.028;2023-06-22T12:15:20;18.90;99.90
21244;DHT22;10780;50.942;4.028;2023-06-22T12:17:45;18.80;99.90
21244;DHT22;10780;50.942;4.028;2023-06-22T12:20:11;18.80;99.90
21244;DHT22;10780;50.942;4.028;2023-06-22T12:22:37;18.80;99.90
21244;DHT22;10780;50.942;4.028;2023-06-22T12:25:06;18.90;99.90
21244;DHT22;10780;50.942;4.028;2023-06-22T12:27:31;18.90;99.90
21244;DHT22;10780;50.942;4.028;2023-06-22T12:29:57;18.90;99.90
21244;DHT22;10780;50.942;4.028;2023-06-22T12:32:23;18.90;99.90
21244;DHT22;10780;50.942;4.028;2023-06-22T12:34:48;18.80;99.90
21244;DHT22;10780;50.942;4.028;2023-06-22T12:37:14;18.80;99.90
21244;DHT22;10780;50.942;4.028;2023-06-22T12:39:43;18.80;99.90
21244;DHT22;10780;50.942;4.028;2023-06-22T12:42:09;18.80;99.90
21244;DHT22;10780;50.942;4.028;2023-06-22T12:44:35;18.70;99.90
21244;DHT22;10780;50.942;4.028;2023-06-22T12:47:01;18.60;99.90
21244;DHT22;10780;50.942;4.028;2023-06-22T12:49:26;18.50;99.90
21244;DHT22;10780;50.942;4.028;2023-06-22T12:51:52;18.40;99.90
21244;DHT22;10780;50.942;4.028;2023-06-22T12:54:18;18.40;99.90
21244;DHT22;10780;50.942;4.028;2023-06-22T12:56:44;18.40;99.90
21244;DHT22;10780;50.942;4.028;2023-06-22T12:59:10;18.30;99.90
21244;DHT22;10780;50.942;4.028;2023-06-22T13:01:36;18.40;99.90
21244;DHT22;10780;50.942;4.028;2023-06-22T13:04:03;18.40;99.90
21244;DHT22;10780;50.942;4.028;2023-06-22T13:06:28;18.40;99.90
21244;DHT22;10780;50.942;4.028;2023-06-22T13:08:54;18.40;99.90
21244;DHT22;10780;50.942;4.028;2023-06-22T13:11:20;18.40;99.90
21244;DHT22;10780;50.942;4.028;2023-06-22T13:13:46;18.40;99.90
21244;DHT22;10780;50.942;4.028;2023-06-22T13:16:12;18.40;99.90
21244;DHT22;10780;50.942;4.028;2023-06-22T13:18:38;18.40;99.90
21244;DHT22;10780;50.942;4.028;2023-06-22T13:21:04;18.50;99.90
21244;DHT22;10780;50.942;4.028;2023-06-22T13:23:30;18.40;99.90
21244;DHT22;10780;50.942;4.028;2023-06-22T13:25:57;18.50;99.90
21244;DHT22;10780;50.942;4.028;2023-06-22T13:28:23;18.50;99.90
21244;DHT22;10780;50.942;4.028;2023-06-22T13:30:48;18.50;99.90
21244;DHT22;10780;50.942;4.028;2023-06-22T13:33:14;18.50;99.90
21244;DHT22;10780;50.942;4.028;2023-06-22T13:35:40;18.50;99.90
21244;DHT22;10780;50.942;4.028;2023-06-22T13:38:08;18.40;99.90
21244;DHT22;10780;50.942;4.028;2023-06-22T13:40:35;18.30;99.90
21244;DHT22;10780;50.942;4.028;2023-06-22T13:43:00;18.30;99.90
21244;DHT22;10780;50.942;4.028;2023-06-22T13:45:26;18.30;99.90
21244;DHT22;10780;50.942;4.028;2023-06-22T13:47:52;18.30;99.90
21244;DHT22;10780;50.942;4.028;2023-06-22T13:50:18;18.40;99.90
21244;DHT22;10780;50.942;4.028;2023-06-22T13:52:43;18.40;99.90
21244;DHT22;10780;50.942;4.028;2023-06-22T13:55:09;18.40;99.90
21244;DHT22;10780;50.942;4.028;2023-06-22T13:57:35;18.50;99.90
21244;DHT22;10780;50.942;4.028;2023-06-22T14:00:02;18.50;99.90
21244;DHT22;10780;50.942;4.028;2023-06-22T14:02:29;18.60;99.90
21244;DHT22;10780;50.942;4.028;2023-06-22T14:04:54;18.60;99.90
21244;DHT22;10780;50.942;4.028;2023-06-22T14:07:20;18.60;99.90
21244;DHT22;10780;50.942;4.028;2023-06-22T14:09:46;18.60;99.90
21244;DHT22;10780;50.942;4.028;2023-06-22T14:12:12;18.60;99.90
21244;DHT22;10780;50.942;4.028;2023-06-22T14:14:38;18.50;99.90
21244;DHT22;10780;50.942;4.028;2023-06-22T14:17:05;18.40;99.90
21244;DHT22;10780;50.942;4.028;2023-06-22T14:19:31;18.40;99.90
21244;DHT22;10780;50.942;4.028;2023-06-22T14:21:56;18.50;99.90
21244;DHT22;10780;50.942;4.028;2023-06-22T14:24:23;18.50;99.90
21244;DHT22;10780;50.942;4.028;2023-06-22T14:26:49;18.60;99.90
21244;DHT22;10780;50.942;4.028;2023-06-22T14:29:14;18.70;99.90
21244;DHT22;10780;50.942;4.028;2023-06-22T14:31:40;18.60;99.90
21244;DHT22;10780;50.942;4.028;2023-06-22T14:34:06;18.70;99.90
21244;DHT22;10780;50.942;4.028;2023-06-22T14:36:32;18.70;99.90
21244;DHT22;10780;50.942;4.028;2023-06-22T14:38:57;18.70;99.90
21244;DHT22;10780;50.942;4.028;2023-06-22T14:41:23;18.70;99.90
21244;DHT22;10780;50.942;4.028;2023-06-22T14:43:50;18.70;99.90
21244;DHT22;10780;50.942;4.028;2023-06-22T14:46:18;18.70;99.90
21244;DHT22;10780;50.942;4.028;2023-06-22T14:48:44;18.70;99.90
21244;DHT22;10780;50.942;4.028;2023-06-22T14:51:10;18.70;99.90
21244;DHT22;10780;50.942;4.028;2023-06-22T14:53:36;18.70;99.90
21244;DHT22;10780;50.942;4.028;2023-06-22T14:56:02;18.80;99.90
21244;DHT22;10780;50.942;4.028;2023-06-22T14:58:29;18.80;99.90
21244;DHT22;10780;50.942;4.028;2023-06-22T15:01:01;18.90;99.90
21244;DHT22;10780;50.942;4.028;2023-06-22T15:03:27;18.90;99.90
21244;DHT22;10780;50.942;4.028;2023-06-22T15:05:55;18.90;99.90
21244;DHT22;10780;50.942;4.028;2023-06-22T15:08:22;19.00;99.90
21244;DHT22;10780;50.942;4.028;2023-06-22T15:10:47;19.00;99.90
21244;DHT22;10780;50.942;4.028;2023-06-22T15:13:13;18.90;99.90
21244;DHT22;10780;50.942;4.028;2023-06-22T15:15:39;18.90;99.90
21244;DHT22;10780;50.942;4.028;2023-06-22T15:18:05;18.90;99.90
21244;DHT22;10780;50.942;4.028;2023-06-22T15:20:31;18.90;99.90
21244;DHT22;10780;50.942;4.028;2023-06-22T15:22:57;19.00;99.90
21244;DHT22;10780;50.942;4.028;2023-06-22T15:25:23;18.90;99.90
21244;DHT22;10780;50.942;4.028;2023-06-22T15:27:49;19.00;99.90
21244;DHT22;10780;50.942;4.028;2023-06-22T15:30:14;19.00;99.90
21244;DHT22;10780;50.942;4.028;2023-06-22T15:32:44;19.00;99.90